sensor_id;sensor_type;location;lat;lon;timestamp;P1;durP1;ratioP1;P2;durP2;ratioP2
1410;SDS011;700;51.906;8.404;2022-09-29T00:01:35;14.30;;;11.87;;
1410;SDS011;700;51.906;8.404;2022-09-29T00:06:36;14.07;;;12.77;;
1410;SDS011;700;51.906;8.404;2022-09-29T00:11:37;12.97;;;11.67;;
1410;SDS011;700;51.906;8.404;2022-09-29T00:16:37;12.13;;;11.00;;
1410;SDS011;700;51.906;8.404;2022-09-29T00:21:38;13.00;;;11.63;;
1410;SDS011;700;51.906;8.404;2022-09-29T00:26:41;12.17;;;11.00;;
1410;SDS011;700;51.906;8.404;2022-09-29T00:31:43;12.40;;;11.20;;
1410;SDS011;700;51.906;8.404;2022-09-29T00:36:46;12.33;;;11.13;;
1410;SDS011;700;51.906;8.404;2022-09-29T00:41:52;12.57;;;11.33;;
1410;SDS011;700;51.906;8.404;2022-09-29T00:46:58;12.27;;;11.10;;
1410;SDS011;700;51.906;8.404;2022-09-29T00:52:07;10.60;;;9.50;;
1410;SDS011;700;51.906;8.404;2022-09-29T00:57:14;11.37;;;10.37;;
1410;SDS011;700;51.906;8.404;2022-09-29T01:02:18;11.57;;;10.30;;
1410;SDS011;700;51.906;8.404;2022-09-29T01:07:22;10.63;;;9.53;;
1410;SDS011;700;51.906;8.404;2022-09-29T01:12:23;10.60;;;9.50;;
1410;SDS011;700;51.906;8.404;2022-09-29T01:17:24;12.30;;;11.20;;
1410;SDS011;700;51.906;8.404;2022-09-29T01:27:58;11.63;;;10.53;;
1410;SDS011;700;51.906;8.404;2022-09-29T01:43:34;12.20;;;11.00;;
1410;SDS011;700;51.906;8.404;2022-09-29T01:48:40;11.33;;;10.23;;
1410;SDS011;700;51.906;8.404;2022-09-29T01:53:47;11.73;;;10.10;;
1410;SDS011;700;51.906;8.404;2022-09-29T01:58:57;11.53;;;10.20;;
1410;SDS011;700;51.906;8.404;2022-09-29T02:04:03;13.97;;;10.50;;
1410;SDS011;700;51.906;8.404;2022-09-29T02:09:27;13.23;;;11.50;;
1410;SDS011;700;51.906;8.404;2022-09-29T02:14:36;12.20;;;11.00;;
1410;SDS011;700;51.906;8.404;2022-09-29T02:19:41;12.47;;;9.80;;
1410;SDS011;700;51.906;8.404;2022-09-29T02:24:43;11.20;;;10.10;;
1410;SDS011;700;51.906;8.404;2022-09-29T02:29:44;12.00;;;10.77;;
1410;SDS011;700;51.906;8.404;2022-09-29T02:34:46;12.00;;;10.80;;
1410;SDS011;700;51.906;8.404;2022-09-29T02:45:18;12.43;;;11.13;;
1410;SDS011;700;51.906;8.404;2022-09-29T02:56:34;11.23;;;10.13;;
1410;SDS011;700;51.906;8.404;2022-09-29T03:01:07;11.83;;;10.37;;
1410;SDS011;700;51.906;8.404;2022-09-29T03:06:11;11.23;;;9.30;;
1410;SDS011;700;51.906;8.404;2022-09-29T03:11:13;11.07;;;9.93;;
1410;SDS011;700;51.906;8.404;2022-09-29T03:16:14;12.03;;;10.37;;
1410;SDS011;700;51.906;8.404;2022-09-29T03:21:19;11.10;;;10.00;;
1410;SDS011;700;51.906;8.404;2022-09-29T03:26:20;11.00;;;9.90;;
1410;SDS011;700;51.906;8.404;2022-09-29T03:31:23;11.20;;;9.90;;
1410;SDS011;700;51.906;8.404;2022-09-29T03:36:23;12.03;;;10.73;;
1410;SDS011;700;51.906;8.404;2022-09-29T03:41:27;11.20;;;10.10;;
1410;SDS011;700;51.906;8.404;2022-09-29T03:46:29;11.77;;;10.57;;
1410;SDS011;700;51.906;8.404;2022-09-29T03:51:30;11.33;;;10.07;;
1410;SDS011;700;51.906;8.404;2022-09-29T03:56:31;10.90;;;9.80;;
1410;SDS011;700;51.906;8.404;2022-09-29T04:01:34;10.77;;;9.77;;
1410;SDS011;700;51.906;8.404;2022-09-29T04:06:39;11.27;;;10.07;;
1410;SDS011;700;51.906;8.404;2022-09-29T04:11:40;10.97;;;9.73;;
1410;SDS011;700;51.906;8.404;2022-09-29T04:16:40;10.63;;;9.07;;
1410;SDS011;700;51.906;8.404;2022-09-29T04:21:41;11.20;;;10.10;;
1410;SDS011;700;51.906;8.404;2022-09-29T04:26:42;10.93;;;9.83;;
1410;SDS011;700;51.906;8.404;2022-09-29T04:31:42;11.27;;;10.03;;
1410;SDS011;700;51.906;8.404;2022-09-29T04:36:43;9.73;;;8.60;;
1410;SDS011;700;51.906;8.404;2022-09-29T04:41:46;10.47;;;8.67;;
1410;SDS011;700;51.906;8.404;2022-09-29T04:46:49;12.77;;;9.93;;
1410;SDS011;700;51.906;8.404;2022-09-29T04:51:50;10.47;;;9.37;;
1410;SDS011;700;51.906;8.404;2022-09-29T04:56:51;10.90;;;9.80;;
1410;SDS011;700;51.906;8.404;2022-09-29T05:01:54;11.73;;;10.53;;
1410;SDS011;700;51.906;8.404;2022-09-29T05:06:59;10.77;;;9.67;;
1410;SDS011;700;51.906;8.404;2022-09-29T05:12:02;9.90;;;8.90;;
1410;SDS011;700;51.906;8.404;2022-09-29T05:17:05;9.70;;;8.70;;
1410;SDS011;700;51.906;8.404;2022-09-29T05:22:06;10.43;;;8.40;;
1410;SDS011;700;51.906;8.404;2022-09-29T05:27:09;16.80;;;9.17;;
1410;SDS011;700;51.906;8.404;2022-09-29T05:32:11;10.60;;;8.57;;
1410;SDS011;700;51.906;8.404;2022-09-29T05:37:12;11.30;;;9.57;;
1410;SDS011;700;51.906;8.404;2022-09-29T05:42:13;12.43;;;9.23;;
1410;SDS011;700;51.906;8.404;2022-09-29T05:47:14;11.60;;;10.23;;
1410;SDS011;700;51.906;8.404;2022-09-29T05:52:17;13.53;;;10.90;;
1410;SDS011;700;51.906;8.404;2022-09-29T05:57:18;19.33;;;11.50;;
1410;SDS011;700;51.906;8.404;2022-09-29T06:02:19;13.60;;;11.53;;
1410;SDS011;700;51.906;8.404;2022-09-29T06:07:22;14.30;;;12.27;;
1410;SDS011;700;51.906;8.404;2022-09-29T06:12:23;13.97;;;10.60;;
1410;SDS011;700;51.906;8.404;2022-09-29T06:17:26;11.83;;;10.53;;
1410;SDS011;700;51.906;8.404;2022-09-29T06:22:26;13.10;;;11.07;;
1410;SDS011;700;51.906;8.404;2022-09-29T06:27:29;11.30;;;10.10;;
1410;SDS011;700;51.906;8.404;2022-09-29T06:32:30;27.40;;;21.10;;
1410;SDS011;700;51.906;8.404;2022-09-29T06:37:33;15.83;;;12.03;;
1410;SDS011;700;51.906;8.404;2022-09-29T06:42:38;11.43;;;10.33;;
1410;SDS011;700;51.906;8.404;2022-09-29T06:47:39;12.40;;;10.77;;
1410;SDS011;700;51.906;8.404;2022-09-29T06:52:39;11.47;;;10.27;;
1410;SDS011;700;51.906;8.404;2022-09-29T06:57:42;14.07;;;12.77;;
1410;SDS011;700;51.906;8.404;2022-09-29T07:02:45;12.73;;;11.33;;
1410;SDS011;700;51.906;8.404;2022-09-29T07:07:49;10.83;;;9.73;;
1410;SDS011;700;51.906;8.404;2022-09-29T07:12:52;12.83;;;10.50;;
1410;SDS011;700;51.906;8.404;2022-09-29T07:17:54;10.00;;;9.00;;
1410;SDS011;700;51.906;8.404;2022-09-29T07:22:57;10.67;;;9.13;;
1410;SDS011;700;51.906;8.404;2022-09-29T07:27:58;12.83;;;10.20;;
1410;SDS011;700;51.906;8.404;2022-09-29T07:33:00;11.93;;;10.83;;
1410;SDS011;700;51.906;8.404;2022-09-29T07:38:05;14.77;;;10.70;;
1410;SDS011;700;51.906;8.404;2022-09-29T07:43:06;13.47;;;10.03;;
1410;SDS011;700;51.906;8.404;2022-09-29T07:48:07;12.23;;;10.20;;
1410;SDS011;700;51.906;8.404;2022-09-29T07:53:07;12.00;;;9.17;;
1410;SDS011;700;51.906;8.404;2022-09-29T07:58:11;11.50;;;10.30;;
1410;SDS011;700;51.906;8.404;2022-09-29T08:03:11;18.30;;;14.63;;
1410;SDS011;700;51.906;8.404;2022-09-29T08:08:12;11.57;;;10.37;;
1410;SDS011;700;51.906;8.404;2022-09-29T08:13:15;11.43;;;10.20;;
1410;SDS011;700;51.906;8.404;2022-09-29T08:18:16;11.73;;;10.07;;
1410;SDS011;700;51.906;8.404;2022-09-29T08:23:17;13.13;;;9.83;;
1410;SDS011;700;51.906;8.404;2022-09-29T08:28:17;11.97;;;10.60;;
1410;SDS011;700;51.906;8.404;2022-09-29T08:33:18;14.63;;;10.63;;
1410;SDS011;700;51.906;8.404;2022-09-29T08:38:21;12.03;;;10.70;;
1410;SDS011;700;51.906;8.404;2022-09-29T08:43:28;12.13;;;10.97;;
1410;SDS011;700;51.906;8.404;2022-09-29T08:48:38;13.13;;;11.50;;
1410;SDS011;700;51.906;8.404;2022-09-29T08:53:44;11.27;;;10.27;;
1410;SDS011;700;51.906;8.404;2022-09-29T08:58:48;14.60;;;13.10;;
1410;SDS011;700;51.906;8.404;2022-09-29T09:30:21;9.83;;;8.70;;
1410;SDS011;700;51.906;8.404;2022-09-29T09:35:34;7.40;;;6.70;;
1410;SDS011;700;51.906;8.404;2022-09-29T09:40:51;7.93;;;7.23;;
1410;SDS011;700;51.906;8.404;2022-09-29T09:46:01;5.20;;;4.70;;
1410;SDS011;700;51.906;8.404;2022-09-29T09:51:23;4.90;;;4.50;;
1410;SDS011;700;51.906;8.404;2022-09-29T09:56:50;6.23;;;5.83;;
1410;SDS011;700;51.906;8.404;2022-09-29T10:02:03;6.53;;;6.03;;
1410;SDS011;700;51.906;8.404;2022-09-29T10:07:04;5.67;;;5.17;;
1410;SDS011;700;51.906;8.404;2022-09-29T10:12:08;5.63;;;5.13;;
1410;SDS011;700;51.906;8.404;2022-09-29T10:17:18;5.90;;;5.40;;
1410;SDS011;700;51.906;8.404;2022-09-29T10:22:26;7.83;;;5.80;;
1410;SDS011;700;51.906;8.404;2022-09-29T10:27:28;5.83;;;5.20;;
1410;SDS011;700;51.906;8.404;2022-09-29T10:32:31;5.63;;;5.13;;
1410;SDS011;700;51.906;8.404;2022-09-29T10:37:37;6.17;;;5.60;;
1410;SDS011;700;51.906;8.404;2022-09-29T10:42:45;8.03;;;7.33;;
1410;SDS011;700;51.906;8.404;2022-09-29T10:48:05;6.67;;;5.87;;
1410;SDS011;700;51.906;8.404;2022-09-29T10:58:41;5.20;;;4.70;;
1410;SDS011;700;51.906;8.404;2022-09-29T11:03:51;5.47;;;4.97;;
1410;SDS011;700;51.906;8.404;2022-09-29T11:14:21;6.03;;;5.53;;
1410;SDS011;700;51.906;8.404;2022-09-29T11:19:23;8.57;;;7.47;;
1410;SDS011;700;51.906;8.404;2022-09-29T11:24:42;6.93;;;5.87;;
1410;SDS011;700;51.906;8.404;2022-09-29T11:30:00;6.80;;;6.20;;
1410;SDS011;700;51.906;8.404;2022-09-29T11:40:11;6.00;;;5.50;;
1410;SDS011;700;51.906;8.404;2022-09-29T11:45:19;5.80;;;5.30;;
1410;SDS011;700;51.906;8.404;2022-09-29T12:06:12;4.97;;;3.67;;
1410;SDS011;700;51.906;8.404;2022-09-29T12:17:03;4.07;;;3.70;;
1410;SDS011;700;51.906;8.404;2022-09-29T12:22:13;5.77;;;4.63;;
1410;SDS011;700;51.906;8.404;2022-09-29T12:27:23;5.43;;;3.87;;
1410;SDS011;700;51.906;8.404;2022-09-29T12:32:36;5.97;;;5.43;;
1410;SDS011;700;51.906;8.404;2022-09-29T12:43:26;5.17;;;4.20;;
1410;SDS011;700;51.906;8.404;2022-09-29T12:48:49;4.93;;;4.43;;
1410;SDS011;700;51.906;8.404;2022-09-29T13:04:49;5.10;;;4.50;;
1410;SDS011;700;51.906;8.404;2022-09-29T13:10:40;5.27;;;4.80;;
1410;SDS011;700;51.906;8.404;2022-09-29T13:31:41;4.27;;;3.87;;
1410;SDS011;700;51.906;8.404;2022-09-29T13:36:45;6.23;;;2.70;;
1410;SDS011;700;51.906;8.404;2022-09-29T13:41:46;3.97;;;2.63;;
1410;SDS011;700;51.906;8.404;2022-09-29T13:46:47;5.23;;;2.43;;
1410;SDS011;700;51.906;8.404;2022-09-29T13:51:58;3.40;;;2.90;;
1410;SDS011;700;51.906;8.404;2022-09-29T14:02:24;2.60;;;2.00;;
1410;SDS011;700;51.906;8.404;2022-09-29T14:07:42;2.90;;;1.70;;
1410;SDS011;700;51.906;8.404;2022-09-29T14:18:20;2.67;;;1.93;;
1410;SDS011;700;51.906;8.404;2022-09-29T14:28:48;4.57;;;2.43;;
1410;SDS011;700;51.906;8.404;2022-09-29T14:33:52;3.40;;;1.70;;
1410;SDS011;700;51.906;8.404;2022-09-29T14:38:56;2.27;;;1.70;;
1410;SDS011;700;51.906;8.404;2022-09-29T14:44:04;3.13;;;2.13;;
1410;SDS011;700;51.906;8.404;2022-09-29T15:00:14;2.80;;;2.47;;
1410;SDS011;700;51.906;8.404;2022-09-29T15:05:31;3.00;;;2.70;;
1410;SDS011;700;51.906;8.404;2022-09-29T15:10:38;3.10;;;2.57;;
1410;SDS011;700;51.906;8.404;2022-09-29T15:15:39;5.40;;;2.50;;
1410;SDS011;700;51.906;8.404;2022-09-29T15:25:59;3.27;;;2.20;;
1410;SDS011;700;51.906;8.404;2022-09-29T15:31:04;3.20;;;2.30;;
1410;SDS011;700;51.906;8.404;2022-09-29T15:36:18;2.90;;;2.10;;
1410;SDS011;700;51.906;8.404;2022-09-29T15:41:21;3.07;;;2.30;;
1410;SDS011;700;51.906;8.404;2022-09-29T15:51:33;3.47;;;1.90;;
1410;SDS011;700;51.906;8.404;2022-09-29T15:56:38;2.27;;;1.70;;
1410;SDS011;700;51.906;8.404;2022-09-29T16:02:00;2.13;;;1.93;;
1410;SDS011;700;51.906;8.404;2022-09-29T16:07:04;3.10;;;2.00;;
1410;SDS011;700;51.906;8.404;2022-09-29T16:12:05;3.50;;;2.33;;
1410;SDS011;700;51.906;8.404;2022-09-29T16:17:08;4.33;;;2.60;;
1410;SDS011;700;51.906;8.404;2022-09-29T16:22:15;4.63;;;3.00;;
1410;SDS011;700;51.906;8.404;2022-09-29T16:32:51;3.23;;;2.90;;
1410;SDS011;700;51.906;8.404;2022-09-29T16:38:07;3.40;;;2.33;;
1410;SDS011;700;51.906;8.404;2022-09-29T16:43:46;4.63;;;3.67;;
1410;SDS011;700;51.906;8.404;2022-09-29T16:48:49;9.03;;;3.57;;
1410;SDS011;700;51.906;8.404;2022-09-29T16:53:52;7.17;;;4.60;;
1410;SDS011;700;51.906;8.404;2022-09-29T16:59:02;5.33;;;4.83;;
1410;SDS011;700;51.906;8.404;2022-09-29T17:04:13;7.90;;;4.80;;
1410;SDS011;700;51.906;8.404;2022-09-29T17:09:16;8.23;;;5.70;;
1410;SDS011;700;51.906;8.404;2022-09-29T17:14:19;6.23;;;5.50;;
1410;SDS011;700;51.906;8.404;2022-09-29T17:19:20;8.60;;;6.50;;
1410;SDS011;700;51.906;8.404;2022-09-29T17:24:21;8.07;;;5.40;;
1410;SDS011;700;51.906;8.404;2022-09-29T17:29:22;6.70;;;5.33;;
1410;SDS011;700;51.906;8.404;2022-09-29T17:34:25;7.60;;;5.70;;
1410;SDS011;700;51.906;8.404;2022-09-29T17:39:28;6.77;;;5.70;;
1410;SDS011;700;51.906;8.404;2022-09-29T17:44:29;9.10;;;6.10;;
1410;SDS011;700;51.906;8.404;2022-09-29T17:49:29;7.23;;;6.57;;
1410;SDS011;700;51.906;8.404;2022-09-29T17:54:34;8.23;;;6.80;;
1410;SDS011;700;51.906;8.404;2022-09-29T17:59:38;7.30;;;6.10;;
1410;SDS011;700;51.906;8.404;2022-09-29T18:04:39;8.67;;;7.07;;
1410;SDS011;700;51.906;8.404;2022-09-29T18:09:44;7.70;;;6.90;;
1410;SDS011;700;51.906;8.404;2022-09-29T18:14:46;7.47;;;6.63;;
1410;SDS011;700;51.906;8.404;2022-09-29T18:19:46;6.77;;;6.07;;
1410;SDS011;700;51.906;8.404;2022-09-29T18:24:49;8.07;;;6.07;;
1410;SDS011;700;51.906;8.404;2022-09-29T18:29:50;5.80;;;5.27;;
1410;SDS011;700;51.906;8.404;2022-09-29T18:34:51;9.57;;;7.97;;
1410;SDS011;700;51.906;8.404;2022-09-29T18:39:54;9.73;;;8.80;;
1410;SDS011;700;51.906;8.404;2022-09-29T18:44:54;8.80;;;7.90;;
1410;SDS011;700;51.906;8.404;2022-09-29T18:49:57;11.77;;;10.40;;
1410;SDS011;700;51.906;8.404;2022-09-29T18:54:58;12.37;;;11.17;;
1410;SDS011;700;51.906;8.404;2022-09-29T18:59:59;17.50;;;13.67;;
1410;SDS011;700;51.906;8.404;2022-09-29T19:05:04;18.23;;;14.27;;
1410;SDS011;700;51.906;8.404;2022-09-29T19:10:10;20.00;;;15.40;;
1410;SDS011;700;51.906;8.404;2022-09-29T19:15:15;15.70;;;13.63;;
1410;SDS011;700;51.906;8.404;2022-09-29T19:20:20;15.73;;;12.30;;
1410;SDS011;700;51.906;8.404;2022-09-29T19:25:23;15.00;;;12.87;;
1410;SDS011;700;51.906;8.404;2022-09-29T19:30:27;14.10;;;12.00;;
1410;SDS011;700;51.906;8.404;2022-09-29T19:35:32;15.87;;;13.03;;
1410;SDS011;700;51.906;8.404;2022-09-29T19:40:33;14.33;;;12.80;;
1410;SDS011;700;51.906;8.404;2022-09-29T19:45:35;15.17;;;13.57;;
1410;SDS011;700;51.906;8.404;2022-09-29T19:50:36;16.33;;;14.63;;
1410;SDS011;700;51.906;8.404;2022-09-29T19:55:55;19.43;;;15.53;;
1410;SDS011;700;51.906;8.404;2022-09-29T20:01:00;21.20;;;17.27;;
1410;SDS011;700;51.906;8.404;2022-09-29T20:06:02;17.30;;;15.70;;
1410;SDS011;700;51.906;8.404;2022-09-29T20:11:07;18.23;;;14.87;;
1410;SDS011;700;51.906;8.404;2022-09-29T20:16:10;20.53;;;17.93;;
1410;SDS011;700;51.906;8.404;2022-09-29T20:21:13;17.33;;;15.53;;
1410;SDS011;700;51.906;8.404;2022-09-29T20:26:16;18.93;;;14.53;;
1410;SDS011;700;51.906;8.404;2022-09-29T20:31:17;17.00;;;14.43;;
1410;SDS011;700;51.906;8.404;2022-09-29T20:36:22;14.20;;;12.40;;
1410;SDS011;700;51.906;8.404;2022-09-29T20:41:23;14.90;;;13.40;;
1410;SDS011;700;51.906;8.404;2022-09-29T20:46:23;13.67;;;12.37;;
1410;SDS011;700;51.906;8.404;2022-09-29T20:51:26;18.17;;;15.20;;
1410;SDS011;700;51.906;8.404;2022-09-29T20:56:28;16.90;;;14.17;;
1410;SDS011;700;51.906;8.404;2022-09-29T21:01:32;15.20;;;13.67;;
1410;SDS011;700;51.906;8.404;2022-09-29T21:06:33;17.37;;;14.20;;
1410;SDS011;700;51.906;8.404;2022-09-29T21:11:40;15.10;;;13.60;;
1410;SDS011;700;51.906;8.404;2022-09-29T21:16:46;14.47;;;13.07;;
1410;SDS011;700;51.906;8.404;2022-09-29T21:21:48;15.37;;;13.87;;
1410;SDS011;700;51.906;8.404;2022-09-29T21:26:51;15.50;;;13.90;;
1410;SDS011;700;51.906;8.404;2022-09-29T21:31:54;14.87;;;13.33;;
1410;SDS011;700;51.906;8.404;2022-09-29T21:36:57;14.93;;;13.47;;
1410;SDS011;700;51.906;8.404;2022-09-29T21:41:57;15.20;;;13.13;;
1410;SDS011;700;51.906;8.404;2022-09-29T21:47:00;16.03;;;13.07;;
1410;SDS011;700;51.906;8.404;2022-09-29T21:52:03;14.23;;;12.63;;
1410;SDS011;700;51.906;8.404;2022-09-29T21:57:06;15.80;;;11.70;;
1410;SDS011;700;51.906;8.404;2022-09-29T22:02:11;13.70;;;12.27;;
1410;SDS011;700;51.906;8.404;2022-09-29T22:07:12;14.40;;;12.97;;
1410;SDS011;700;51.906;8.404;2022-09-29T22:12:13;13.70;;;11.70;;
1410;SDS011;700;51.906;8.404;2022-09-29T22:17:13;15.67;;;13.13;;
1410;SDS011;700;51.906;8.404;2022-09-29T22:22:14;13.63;;;12.37;;
1410;SDS011;700;51.906;8.404;2022-09-29T22:27:15;14.13;;;12.57;;
1410;SDS011;700;51.906;8.404;2022-09-29T22:32:15;15.53;;;12.00;;
1410;SDS011;700;51.906;8.404;2022-09-29T22:37:16;13.67;;;12.10;;
1410;SDS011;700;51.906;8.404;2022-09-29T22:42:17;13.63;;;11.63;;
1410;SDS011;700;51.906;8.404;2022-09-29T22:47:18;13.07;;;11.20;;
1410;SDS011;700;51.906;8.404;2022-09-29T22:52:18;17.90;;;10.70;;
1410;SDS011;700;51.906;8.404;2022-09-29T22:57:19;13.10;;;11.80;;
1410;SDS011;700;51.906;8.404;2022-09-29T23:02:22;12.00;;;10.80;;
1410;SDS011;700;51.906;8.404;2022-09-29T23:07:22;12.00;;;10.80;;
1410;SDS011;700;51.906;8.404;2022-09-29T23:12:23;12.30;;;11.30;;
1410;SDS011;700;51.906;8.404;2022-09-29T23:17:27;11.60;;;10.60;;
1410;SDS011;700;51.906;8.404;2022-09-29T23:22:29;12.03;;;10.93;;
1410;SDS011;700;51.906;8.404;2022-09-29T23:27:32;12.83;;;11.53;;
1410;SDS011;700;51.906;8.404;2022-09-29T23:32:35;11.93;;;10.73;;
1410;SDS011;700;51.906;8.404;2022-09-29T23:37:36;10.97;;;10.03;;
1410;SDS011;700;51.906;8.404;2022-09-29T23:42:55;11.73;;;10.57;;
1410;SDS011;700;51.906;8.404;2022-09-29T23:47:58;12.70;;;11.60;;
1410;SDS011;700;51.906;8.404;2022-09-29T23:52:59;11.57;;;10.50;;
1410;SDS011;700;51.906;8.404;2022-09-29T23:57:59;10.87;;;9.97;;
